Time;durP1;ratioP1;P1;durP2;ratioP2;P2;SDS_P1;SDS_P2;PMS_P1;PMS_P2;Temp;Humidity;BMP_temperature;BMP_pressure;BME280_temperature;BME280_humidity;BME280_pressure;Samples;Min_cycle;Max_cycle;Signal;HPM_P1;HPM_P2
2022/10/14 00:00:27;;;;;;;8.32;4.95;;;;;;;11.01;100.00;96090.00;1035610;28;20057;-72
2022/10/14 00:01:25;;;;;;;10.07;4.30;;;;;;;11.06;100.00;96101.31;1020750;29;20043;-71
2022/10/14 00:01:56;;;;;;;12.07;4.90;;;;;;;11.06;100.00;96096.06;1027786;28;20038;-71
2022/10/14 00:02:26;;;;;;;12.90;4.60;;;;;;;11.06;100.00;96101.31;1027901;28;20264;-72
2022/10/14 00:02:57;;;;;;;10.18;4.45;;;;;;;11.05;100.00;96099.75;1030269;28;20070;-71
2022/10/14 00:03:27;;;;;;;9.00;4.22;;;;;;;11.02;100.00;96089.75;1030090;28;20026;-72
2022/10/14 00:03:58;;;;;;;12.10;4.68;;;;;;;10.97;100.00;96084.50;1028094;28;20026;-72
2022/10/14 00:04:28;;;;;;;8.18;4.40;;;;;;;11.02;100.00;96087.13;1027866;28;20031;-72
2022/10/14 00:04:59;;;;;;;8.48;4.50;;;;;;;11.01;100.00;96095.25;1023896;29;20035;-72
2022/10/14 00:05:29;;;;;;;8.88;5.25;;;;;;;11.00;100.00;96099.72;1023085;28;20022;-73
2022/10/14 00:06:04;;;;;;;7.47;3.83;;;;;;;10.95;100.00;96085.78;1028279;28;20382;-72
2022/10/14 00:06:34;;;;;;;8.77;4.22;;;;;;;10.99;100.00;96099.97;1036380;28;20029;-72
2022/10/14 00:07:04;;;;;;;8.40;4.40;;;;;;;10.95;100.00;96091.81;1035693;28;20763;-73
2022/10/14 00:07:36;;;;;;;10.50;4.03;;;;;;;10.96;100.00;96089.97;1027728;28;20038;-73
2022/10/14 00:08:08;;;;;;;10.65;4.70;;;;;;;10.98;100.00;96087.91;1028088;28;20037;-73
2022/10/14 00:08:39;;;;;;;11.77;4.65;;;;;;;10.99;100.00;96092.09;1025255;28;20279;-70
2022/10/14 00:09:09;;;;;;;9.00;4.30;;;;;;;10.99;100.00;96092.88;1031773;28;20325;-73
2022/10/14 00:09:41;;;;;;;7.72;4.45;;;;;;;10.96;100.00;96088.13;1031673;28;20516;-72
2022/10/14 00:10:11;;;;;;;8.25;4.13;;;;;;;10.99;100.00;96089.47;1028015;28;20023;-72
2022/10/14 00:10:42;;;;;;;7.13;3.38;;;;;;;10.99;100.00;96086.84;1027988;28;20254;-73
2022/10/14 00:11:33;;;;;;;7.55;4.40;;;;;;;10.98;100.00;96086.06;1026405;28;20026;-72
2022/10/14 00:12:03;;;;;;;6.82;4.05;;;;;;;10.97;100.00;96083.69;1037040;28;20563;-72
2022/10/14 00:12:34;;;;;;;6.82;4.10;;;;;;;10.93;100.00;96082.59;1034469;28;20293;-72
2022/10/14 00:13:04;;;;;;;5.75;4.03;;;;;;;10.93;100.00;96080.78;1030037;28;20030;-72
2022/10/14 00:13:35;;;;;;;7.53;4.25;;;;;;;10.96;100.00;96082.88;1027837;28;20062;-72
2022/10/14 00:14:11;;;;;;;7.95;3.72;;;;;;;11.01;100.00;96088.16;1032069;28;20046;-72
2022/10/14 00:14:41;;;;;;;7.07;3.97;;;;;;;11.00;100.00;96088.41;1027660;28;20121;-72
2022/10/14 00:15:12;;;;;;;6.07;3.92;;;;;;;10.95;100.00;96081.31;1027843;28;20246;-72
2022/10/14 00:15:42;;;;;;;9.98;4.53;;;;;;;11.00;100.00;96088.41;1023138;28;20492;-72
2022/10/14 00:16:20;;;;;;;9.95;4.20;;;;;;;10.96;100.00;96082.88;1023778;28;20027;-72
2022/10/14 00:16:52;;;;;;;6.85;4.03;;;;;;;10.96;100.00;96082.88;1024401;29;20019;-72
2022/10/14 00:17:22;;;;;;;5.78;3.35;;;;;;;10.99;100.00;96079.75;1027727;28;20285;-72
2022/10/14 00:17:53;;;;;;;11.88;4.07;;;;;;;10.94;100.00;96069.25;1028199;28;20769;-72
2022/10/14 00:18:23;;;;;;;8.30;4.43;;;;;;;10.98;100.00;96075.56;1023782;29;20024;-73
2022/10/14 00:18:53;;;;;;;7.22;4.43;;;;;;;10.89;100.00;96065.78;1029119;28;20026;-72
2022/10/14 00:19:24;;;;;;;8.57;4.22;;;;;;;10.93;100.00;96075.53;1031841;28;20089;-72
2022/10/14 00:19:54;;;;;;;11.63;3.50;;;;;;;11.00;100.00;96080.53;1028013;28;20022;-72
2022/10/14 00:20:28;;;;;;;5.95;3.58;;;;;;;10.95;100.00;96067.41;1035426;28;20041;-72
2022/10/14 00:21:00;;;;;;;7.00;3.60;;;;;;;10.94;100.00;96073.72;1036669;28;20072;-73
2022/10/14 00:21:31;;;;;;;8.18;4.15;;;;;;;10.95;100.00;96076.06;1035762;28;20264;-72
2022/10/14 00:22:01;;;;;;;6.28;4.20;;;;;;;10.99;100.00;96081.59;1035958;28;20261;-72
2022/10/14 00:22:31;;;;;;;7.07;3.90;;;;;;;11.00;100.00;96073.47;1031990;28;20022;-72
2022/10/14 00:23:02;;;;;;;5.40;3.67;;;;;;;10.97;100.00;96079.22;1031681;28;20065;-71
2022/10/14 00:23:32;;;;;;;7.38;3.45;;;;;;;10.96;100.00;96077.63;1027757;28;20030;-72
2022/10/14 00:24:03;;;;;;;6.93;4.32;;;;;;;10.96;100.00;96075.00;1036025;28;20022;-72
2022/10/14 00:24:34;;;;;;;6.60;3.75;;;;;;;10.98;100.00;96074.75;1036557;28;20555;-71
2022/10/14 00:25:04;;;;;;;8.77;4.22;;;;;;;10.99;100.00;96077.13;1027824;28;20022;-72
2022/10/14 00:25:36;;;;;;;6.05;3.88;;;;;;;10.99;100.00;96076.34;1025065;28;20023;-72
2022/10/14 00:26:16;;;;;;;8.57;3.83;;;;;;;10.99;100.00;96079.75;1027708;28;20019;-70
2022/10/14 00:26:47;;;;;;;8.25;4.63;;;;;;;10.98;100.00;96078.19;1027574;28;20434;-71
2022/10/14 00:27:17;;;;;;;11.15;4.40;;;;;;;10.96;100.00;96076.84;1027447;28;20082;-73
2022/10/14 00:27:48;;;;;;;10.13;4.50;;;;;;;10.96;100.00;96082.88;1038739;28;20060;-70
2022/10/14 00:28:18;;;;;;;7.25;3.55;;;;;;;10.97;100.00;96081.84;1040097;28;20022;-70
2022/10/14 00:28:49;;;;;;;7.93;4.28;;;;;;;10.97;100.00;96088.94;1031442;28;20146;-70
2022/10/14 00:29:19;;;;;;;5.95;3.88;;;;;;;10.92;100.00;96081.81;1031109;28;20029;-70
2022/10/14 00:29:50;;;;;;;7.50;4.45;;;;;;;10.94;100.00;96082.38;1031576;28;20022;-71
2022/10/14 00:30:20;;;;;;;7.68;4.50;;;;;;;10.95;100.00;96086.56;1031866;28;20099;-72
2022/10/14 00:30:55;;;;;;;7.13;3.85;;;;;;;10.96;100.00;96092.59;1035620;28;20114;-72
2022/10/14 00:31:26;;;;;;;7.43;4.25;;;;;;;10.90;100.00;96088.38;1031749;28;20026;-72
2022/10/14 00:31:56;;;;;;;8.35;4.50;;;;;;;10.93;100.00;96098.34;1036090;28;20021;-72
2022/10/14 00:32:27;;;;;;;11.15;4.15;;;;;;;10.90;100.00;96089.19;1034345;28;20680;-71
2022/10/14 00:32:57;;;;;;;7.97;4.25;;;;;;;10.96;100.00;96093.38;1031463;28;20026;-70
2022/10/14 00:33:28;;;;;;;8.88;3.95;;;;;;;10.93;100.00;96099.19;1035819;28;20033;-70
2022/10/14 00:33:58;;;;;;;7.05;3.75;;;;;;;10.93;100.00;96101.81;1031581;28;20125;-72
2022/10/14 00:34:28;;;;;;;7.95;4.05;;;;;;;10.93;100.00;96099.19;1023277;28;20094;-73
2022/10/14 00:34:59;;;;;;;5.85;3.50;;;;;;;10.95;100.00;96091.03;1023923;29;20094;-71
2022/10/14 00:35:31;;;;;;;9.07;3.70;;;;;;;10.92;100.00;96094.16;1022995;28;20023;-71
2022/10/14 00:36:04;;;;;;;6.95;4.00;;;;;;;10.93;100.00;96093.09;1031716;28;20030;-71
2022/10/14 00:36:34;;;;;;;6.10;3.55;;;;;;;10.92;100.00;96092.31;1031990;28;20275;-72
2022/10/14 00:37:05;;;;;;;6.80;3.17;;;;;;;10.87;100.00;96091.53;1027773;28;20274;-71
2022/10/14 00:37:35;;;;;;;7.22;3.35;;;;;;;10.87;100.00;96091.53;1028192;28;20031;-72
2022/10/14 00:38:05;;;;;;;8.60;3.13;;;;;;;10.93;100.00;96103.63;1027377;28;20062;-72
2022/10/14 00:38:36;;;;;;;4.85;3.33;;;;;;;10.89;100.00;96095.47;1027551;28;20022;-72
2022/10/14 00:39:06;;;;;;;8.43;3.33;;;;;;;10.91;100.00;96097.84;1027813;28;20023;-72
2022/10/14 00:39:37;;;;;;;6.68;3.30;;;;;;;10.88;100.00;96095.72;1031734;28;20019;-72
2022/10/14 00:40:08;;;;;;;5.82;3.25;;;;;;;10.88;100.00;96099.13;1031837;28;20019;-72
2022/10/14 00:40:39;;;;;;;7.57;3.30;;;;;;;10.89;100.00;96097.28;1035356;28;20044;-72
2022/10/14 00:41:14;;;;;;;5.72;3.25;;;;;;;10.91;100.00;96098.63;1029559;28;20701;-71
2022/10/14 00:41:45;;;;;;;6.07;3.67;;;;;;;10.87;100.00;96094.94;1032114;28;20595;-70
2022/10/14 00:42:15;;;;;;;6.72;3.10;;;;;;;10.88;100.00;96104.38;1032150;28;20278;-73
2022/10/14 00:42:45;;;;;;;4.38;3.00;;;;;;;10.89;100.00;96100.72;1030729;28;20015;-72
2022/10/14 00:43:16;;;;;;;4.70;2.65;;;;;;;10.86;100.00;96093.34;1027312;28;20430;-73
2022/10/14 00:43:59;;;;;;;8.68;3.78;;;;;;;10.86;100.00;96106.47;1028116;28;20230;-72
2022/10/14 00:44:29;;;;;;;6.15;3.13;;;;;;;10.85;100.00;96107.53;1033779;28;20093;-70
2022/10/14 00:45:05;;;;;;;6.93;3.25;;;;;;;10.74;100.00;96090.16;1035369;28;20253;-72
2022/10/14 00:45:35;;;;;;;6.82;3.38;;;;;;;10.79;100.00;96103.28;1029728;28;20015;-72
2022/10/14 00:46:08;;;;;;;8.90;3.08;;;;;;;10.81;100.00;96101.22;1023518;29;20785;-72
2022/10/14 00:46:40;;;;;;;7.43;3.28;;;;;;;10.83;100.00;96104.34;1028053;28;20015;-72
2022/10/14 00:47:11;;;;;;;4.90;3.17;;;;;;;10.81;100.00;96101.22;1028246;28;20274;-72
2022/10/14 00:47:41;;;;;;;6.75;3.53;;;;;;;10.82;100.00;96105.41;1029801;28;20258;-71
2022/10/14 00:48:12;;;;;;;7.53;3.40;;;;;;;10.79;100.00;96104.06;1036155;28;20045;-71
2022/10/14 00:48:42;;;;;;;5.88;3.38;;;;;;;10.79;100.00;96103.28;1033499;28;20544;-72
2022/10/14 00:49:33;;;;;;;5.90;3.00;;;;;;;10.76;100.00;96101.16;1035828;28;20029;-72
2022/10/14 00:50:03;;;;;;;8.32;3.33;;;;;;;10.78;100.00;96101.72;1033426;28;20017;-71
2022/10/14 00:50:34;;;;;;;4.93;3.05;;;;;;;10.64;100.00;96080.38;1032316;28;20141;-70
2022/10/14 00:51:04;;;;;;;5.53;3.22;;;;;;;10.83;100.00;96105.16;1025408;28;20023;-72
2022/10/14 00:51:35;;;;;;;10.00;3.33;;;;;;;10.82;100.00;96105.41;1022572;28;20694;-72
2022/10/14 00:52:12;;;;;;;8.48;3.95;;;;;;;10.81;100.00;96098.56;1024028;28;20011;-72
2022/10/14 00:52:44;;;;;;;6.72;2.85;;;;;;;10.83;100.00;96104.34;1027639;28;20031;-72
2022/10/14 00:53:14;;;;;;;7.15;3.70;;;;;;;10.82;100.00;96108.81;1029852;28;20298;-72
2022/10/14 00:53:45;;;;;;;5.70;3.35;;;;;;;10.80;100.00;96100.41;1034502;28;20316;-73
2022/10/14 00:54:17;;;;;;;5.40;3.10;;;;;;;10.79;100.00;96101.44;1034629;28;20019;-73
2022/10/14 00:55:12;;;;;;;5.50;3.05;;;;;;;10.82;100.00;96111.44;1033056;28;20018;-72
2022/10/14 00:55:43;;;;;;;8.02;3.10;;;;;;;10.83;100.00;96107.78;1023866;28;20850;-72
2022/10/14 00:56:15;;;;;;;7.57;3.67;;;;;;;10.82;100.00;96108.03;1031724;28;20250;-72
2022/10/14 00:56:45;;;;;;;5.40;3.03;;;;;;;10.82;100.00;96111.44;1035095;28;20143;-72
2022/10/14 00:57:16;;;;;;;7.20;3.60;;;;;;;10.82;100.00;96110.66;1032977;28;20418;-72
2022/10/14 00:57:46;;;;;;;8.02;3.33;;;;;;;10.81;100.00;96111.69;1032737;28;20022;-72
2022/10/14 00:58:17;;;;;;;6.88;3.17;;;;;;;10.81;100.00;96111.69;1031365;28;20514;-72
2022/10/14 00:58:47;;;;;;;7.03;3.40;;;;;;;10.80;100.00;96110.91;1039802;28;20429;-72
2022/10/14 00:59:17;;;;;;;5.97;3.20;;;;;;;10.77;100.00;96105.38;1041638;28;20029;-73
2022/10/14 00:59:48;;;;;;;6.47;3.13;;;;;;;10.57;100.00;96075.34;1032538;28;20014;-73
2022/10/14 01:00:19;;;;;;;10.98;3.63;;;;;;;10.82;100.00;96115.91;1032558;28;20026;-72
2022/10/14 01:00:49;;;;;;;5.50;2.95;;;;;;;10.81;100.00;96114.31;1029064;28;20098;-72
2022/10/14 01:01:19;;;;;;;4.85;3.40;;;;;;;10.80;100.00;96113.53;1027087;28;20059;-73
2022/10/14 01:01:50;;;;;;;3.88;3.40;;;;;;;10.81;100.00;96111.69;1036860;28;20036;-73
2022/10/14 01:02:20;;;;;;;6.05;2.70;;;;;;;10.81;100.00;96114.31;1033189;28;20035;-73
2022/10/14 01:02:51;;;;;;;7.32;3.67;;;;;;;10.80;100.00;96116.16;1032986;28;20018;-71
2022/10/14 01:03:22;;;;;;;6.18;3.33;;;;;;;10.80;100.00;96116.16;1032886;28;20057;-72
2022/10/14 01:03:52;;;;;;;6.78;3.35;;;;;;;10.81;100.00;96119.56;1036832;28;20033;-73
2022/10/14 01:04:23;;;;;;;4.65;3.15;;;;;;;10.81;100.00;96111.69;1045155;28;20521;-73
2022/10/14 01:04:53;;;;;;;6.05;3.05;;;;;;;10.81;100.00;96119.56;1041560;28;20010;-72
2022/10/14 01:05:30;;;;;;;6.70;2.50;;;;;;;10.82;100.00;96115.91;1039547;28;20025;-72
2022/10/14 01:06:02;;;;;;;6.13;3.35;;;;;;;10.79;100.00;96121.66;1040902;28;20064;-72
2022/10/14 01:06:41;;;;;;;6.38;2.90;;;;;;;10.81;100.00;96119.56;1037795;28;20925;-72
2022/10/14 01:07:31;;;;;;;4.53;2.92;;;;;;;10.79;100.00;96113.78;1040481;28;20818;-72
2022/10/14 01:08:08;;;;;;;6.43;3.08;;;;;;;10.80;100.00;96118.78;1036607;28;20292;-73
2022/10/14 01:09:03;;;;;;;7.22;3.42;;;;;;;10.83;100.00;96125.34;1035955;28;20276;-72
2022/10/14 01:09:58;;;;;;;6.22;3.10;;;;;;;10.81;100.00;96122.19;1032623;28;20273;-72
2022/10/14 01:10:38;;;;;;;8.65;3.53;;;;;;;10.78;100.00;96118.25;1030723;28;20257;-72
2022/10/14 01:11:24;;;;;;;5.72;2.85;;;;;;;10.77;100.00;96121.13;1025611;28;20250;-72
2022/10/14 01:12:12;;;;;;;6.28;3.00;;;;;;;10.76;100.00;96125.56;1021136;28;20024;-72
2022/10/14 01:12:58;;;;;;;7.82;3.35;;;;;;;10.81;100.00;96119.56;1024320;29;20279;-73
2022/10/14 01:13:33;;;;;;;5.22;2.88;;;;;;;10.79;100.00;96116.41;1029514;28;20262;-73
2022/10/14 01:14:07;;;;;;;5.10;2.83;;;;;;;10.79;100.00;96124.28;1028467;28;20732;-72
2022/10/14 01:14:50;;;;;;;7.93;3.72;;;;;;;10.80;100.00;96121.41;1037678;28;20747;-73
2022/10/14 01:15:44;;;;;;;6.00;3.20;;;;;;;10.71;100.00;96112.44;1032739;28;20693;-71
2022/10/14 01:16:44;;;;;;;6.75;3.10;;;;;;;10.80;100.00;96118.78;1041309;28;20767;-72
2022/10/14 01:17:32;;;;;;;8.52;4.65;;;;;;;10.80;100.00;96121.41;1036848;28;20538;-72
2022/10/14 01:18:31;;;;;;;4.55;2.47;;;;;;;10.79;100.00;96119.81;1040993;28;20244;-72
2022/10/14 01:19:23;;;;;;;4.72;2.67;;;;;;;10.76;100.00;96111.66;1041421;28;20232;-72
2022/10/14 01:20:22;;;;;;;7.43;3.55;;;;;;;10.83;100.00;96117.47;1037052;28;20257;-73
2022/10/14 01:21:26;;;;;;;5.00;2.67;;;;;;;10.49;100.00;96072.41;1035114;28;20910;-72
2022/10/14 01:22:07;;;;;;;6.20;3.13;;;;;;;10.81;100.00;96120.38;1027540;28;20277;-72
2022/10/14 01:23:01;;;;;;;5.93;2.85;;;;;;;10.79;100.00;96124.28;1029770;28;20329;-72
2022/10/14 01:23:34;;;;;;;7.53;3.17;;;;;;;10.76;100.00;96120.31;1030797;28;20042;-71
2022/10/14 01:24:26;;;;;;;6.28;3.58;;;;;;;10.77;100.00;96121.13;1034310;28;20284;-71
2022/10/14 01:25:05;;;;;;;6.65;2.75;;;;;;;10.77;100.00;96119.31;1026573;28;20266;-72
2022/10/14 01:26:19;;;;;;;6.90;3.40;;;;;;;10.79;100.00;96121.66;1036926;28;20257;-72
2022/10/14 01:27:16;;;;;;;7.03;3.22;;;;;;;10.64;100.00;96100.59;1028427;28;20245;-72
2022/10/14 01:28:12;;;;;;;5.63;2.72;;;;;;;10.77;100.00;96127.16;1036508;28;20253;-72
2022/10/14 01:28:54;;;;;;;4.75;3.13;;;;;;;10.74;100.00;96116.41;1039417;28;20237;-72
2022/10/14 01:29:55;;;;;;;5.05;2.70;;;;;;;10.78;100.00;96125.34;1030573;28;20246;-72
2022/10/14 01:30:32;;;;;;;6.05;3.20;;;;;;;10.70;100.00;96104.81;1026122;28;20239;-71
2022/10/14 01:31:03;;;;;;;5.38;2.85;;;;;;;10.45;100.00;96077.38;1030651;28;20286;-71
2022/10/14 01:31:35;;;;;;;6.45;3.20;;;;;;;10.73;100.00;96115.59;1032957;28;20249;-71
2022/10/14 01:32:17;;;;;;;7.15;2.92;;;;;;;10.76;100.00;96120.31;1033019;28;20253;-72
2022/10/14 01:32:49;;;;;;;6.47;3.40;;;;;;;10.76;100.00;96119.53;1028545;28;20255;-72
2022/10/14 01:33:24;;;;;;;6.22;3.60;;;;;;;10.77;100.00;96115.88;1024856;28;20279;-73
2022/10/14 01:33:55;;;;;;;5.38;3.17;;;;;;;10.77;100.00;96118.50;1024901;29;20262;-72
2022/10/14 01:34:30;;;;;;;8.98;2.92;;;;;;;10.68;100.00;96104.28;1031790;28;20253;-71
2022/10/14 01:35:18;;;;;;;3.55;2.42;;;;;;;10.76;100.00;96124.78;1030177;28;20258;-70
2022/10/14 01:36:07;;;;;;;7.45;3.67;;;;;;;10.74;100.00;96119.81;1030844;28;20250;-72
2022/10/14 01:36:44;;;;;;;4.95;3.08;;;;;;;10.73;100.00;96120.84;1037532;28;21008;-72
2022/10/14 01:37:17;;;;;;;5.18;2.83;;;;;;;10.68;100.00;96114.78;1032667;28;20293;-72
2022/10/14 01:37:54;;;;;;;7.88;3.55;;;;;;;10.72;100.00;96118.47;1028191;28;20262;-73
2022/10/14 01:38:38;;;;;;;6.80;3.60;;;;;;;10.70;100.00;96120.56;1024348;29;20282;-71
2022/10/14 01:39:24;;;;;;;5.80;3.22;;;;;;;10.64;100.00;96116.34;1024536;29;20692;-71
2022/10/14 01:39:57;;;;;;;6.22;3.50;;;;;;;10.61;100.00;96113.16;1028527;28;20262;-71
2022/10/14 01:40:54;;;;;;;4.95;3.13;;;;;;;10.66;100.00;96119.47;1028587;28;20267;-72
2022/10/14 01:41:27;;;;;;;7.72;3.20;;;;;;;10.67;100.00;96123.69;1028253;28;20332;-71
2022/10/14 01:42:04;;;;;;;5.25;3.60;;;;;;;10.47;100.00;96096.28;1032744;28;20245;-72
2022/10/14 01:42:35;;;;;;;6.40;3.05;;;;;;;10.63;100.00;96120.78;1031860;28;20327;-71
2022/10/14 01:43:06;;;;;;;5.82;3.20;;;;;;;10.59;100.00;96119.69;1024611;29;20251;-72
2022/10/14 01:43:36;;;;;;;7.63;3.40;;;;;;;10.62;100.00;96117.34;1020380;29;20263;-71
2022/10/14 01:44:09;;;;;;;6.20;3.30;;;;;;;10.65;100.00;96120.53;1024720;29;20063;-72
2022/10/14 01:44:41;;;;;;;5.72;3.50;;;;;;;10.64;100.00;96124.22;1028401;28;20142;-72
2022/10/14 01:45:16;;;;;;;4.63;2.97;;;;;;;10.64;100.00;96121.59;1028679;28;20585;-72
2022/10/14 01:45:47;;;;;;;8.43;3.58;;;;;;;10.61;100.00;96120.25;1027620;28;20262;-72
2022/10/14 01:46:18;;;;;;;4.47;2.45;;;;;;;10.62;100.00;96124.44;1024300;29;20272;-72
2022/10/14 01:46:53;;;;;;;4.70;3.17;;;;;;;10.62;100.00;96117.34;1028379;28;20025;-72
2022/10/14 01:47:23;;;;;;;6.28;3.28;;;;;;;10.65;100.00;96117.91;1040662;28;20041;-71
2022/10/14 01:47:54;;;;;;;5.47;3.35;;;;;;;10.63;100.00;96115.53;1032317;28;20278;-71
2022/10/14 01:48:27;;;;;;;5.25;3.35;;;;;;;10.61;100.00;96123.66;1036483;28;20020;-72
2022/10/14 01:49:00;;;;;;;6.72;3.45;;;;;;;10.64;100.00;96116.34;1032466;28;20018;-72
2022/10/14 01:49:33;;;;;;;8.20;3.13;;;;;;;10.61;100.00;96123.66;1025845;28;20263;-71
2022/10/14 01:50:08;;;;;;;4.53;2.95;;;;;;;10.62;100.00;96121.81;1024628;29;20267;-73
2022/10/14 01:50:39;;;;;;;5.30;3.28;;;;;;;10.62;100.00;96119.97;1024830;29;20262;-72
2022/10/14 01:51:14;;;;;;;7.15;3.22;;;;;;;10.64;100.00;96129.44;1024847;29;20381;-72
2022/10/14 01:51:47;;;;;;;6.97;3.25;;;;;;;10.62;100.00;96119.97;1024704;29;20086;-72
2022/10/14 01:52:21;;;;;;;10.02;3.80;;;;;;;10.64;100.00;96124.22;1026242;28;20262;-72
2022/10/14 01:52:55;;;;;;;5.70;3.35;;;;;;;10.61;100.00;96123.66;1024516;28;20376;-72
2022/10/14 01:53:29;;;;;;;5.22;3.22;;;;;;;10.61;100.00;96118.41;1024488;29;20274;-71
2022/10/14 01:54:03;;;;;;;6.45;3.30;;;;;;;10.58;100.00;96116.28;1032457;28;20354;-71
2022/10/14 01:54:36;;;;;;;4.80;3.05;;;;;;;10.64;100.00;96124.22;1032230;28;20731;-71
2022/10/14 01:55:10;;;;;;;3.95;2.65;;;;;;;10.64;100.00;96116.34;1032303;28;20254;-72
2022/10/14 01:55:42;;;;;;;6.22;4.15;;;;;;;10.64;100.00;96121.59;1031521;28;20574;-71
2022/10/14 01:56:13;;;;;;;6.10;3.25;;;;;;;10.60;100.00;96116.84;1028204;28;20595;-72
2022/10/14 01:56:44;;;;;;;6.70;3.30;;;;;;;10.62;100.00;96119.97;1028317;28;20262;-70
2022/10/14 01:57:17;;;;;;;3.67;2.67;;;;;;;10.62;100.00;96117.34;1032514;28;20702;-70
2022/10/14 01:57:49;;;;;;;10.57;3.28;;;;;;;10.61;100.00;96115.78;1028569;28;20039;-72
2022/10/14 01:58:21;;;;;;;6.18;2.83;;;;;;;10.64;100.00;96113.72;1024557;28;20263;-71
2022/10/14 01:58:51;;;;;;;5.43;2.95;;;;;;;10.58;100.00;96113.66;1025507;28;20292;-70
2022/10/14 01:59:23;;;;;;;7.20;3.20;;;;;;;10.64;100.00;96111.09;1028416;28;20325;-72
2022/10/14 01:59:53;;;;;;;4.75;3.05;;;;;;;10.60;100.00;96119.47;1032545;28;20324;-73
2022/10/14 02:00:24;;;;;;;5.45;3.00;;;;;;;10.62;100.00;96117.34;1027937;28;20042;-73
2022/10/14 02:00:55;;;;;;;5.35;3.05;;;;;;;10.62;100.00;96117.34;1032321;28;20493;-73
2022/10/14 02:01:25;;;;;;;5.03;2.55;;;;;;;10.62;100.00;96114.72;1028179;28;20057;-72
2022/10/14 02:01:56;;;;;;;7.90;3.17;;;;;;;10.60;100.00;96111.59;1036510;28;20085;-73
2022/10/14 02:02:26;;;;;;;4.95;3.08;;;;;;;10.60;100.00;96114.22;1036710;28;20030;-72
2022/10/14 02:02:57;;;;;;;4.88;3.15;;;;;;;10.62;100.00;96112.09;1040922;28;20420;-72
2022/10/14 02:03:43;;;;;;;6.18;2.92;;;;;;;10.61;100.00;96117.63;1044714;28;20082;-72
2022/10/14 02:04:21;;;;;;;5.15;3.00;;;;;;;10.53;100.00;96104.97;1038756;28;20032;-72
2022/10/14 02:04:51;;;;;;;6.03;3.17;;;;;;;10.56;100.00;96109.69;1036516;28;20724;-72
2022/10/14 02:05:43;;;;;;;2.97;2.47;;;;;;;10.54;100.00;96096.84;1033462;28;20453;-71
2022/10/14 02:06:17;;;;;;;4.72;3.15;;;;;;;10.40;100.00;96084.44;1036192;28;20773;-72
2022/10/14 02:07:06;;;;;;;6.30;2.83;;;;;;;10.59;100.00;96110.00;1027760;28;21066;-72
2022/10/14 02:07:44;;;;;;;6.82;3.10;;;;;;;10.58;100.00;96112.88;1036515;28;20273;-72
2022/10/14 02:08:52;;;;;;;5.13;3.17;;;;;;;10.58;100.00;96118.91;1036775;28;20277;-71
2022/10/14 02:09:41;;;;;;;5.47;2.67;;;;;;;10.56;100.00;96115.75;1038727;28;20386;-72
2022/10/14 02:10:28;;;;;;;5.97;3.15;;;;;;;10.50;100.00;96102.88;1028539;28;20762;-71
2022/10/14 02:11:10;;;;;;;3.67;2.53;;;;;;;10.51;100.00;96105.22;1028433;28;20259;-71
2022/10/14 02:12:07;;;;;;;12.18;2.50;;;;;;;10.55;100.00;96116.78;1028535;28;20309;-72
2022/10/14 02:12:41;;;;;;;5.10;2.85;;;;;;;10.54;100.00;96109.97;1022953;28;20264;-72
2022/10/14 02:13:34;;;;;;;5.65;2.88;;;;;;;10.54;100.00;96117.06;1032563;28;20281;-71
2022/10/14 02:14:30;;;;;;;4.50;2.83;;;;;;;10.54;100.00;96115.22;1040296;28;20288;-71
2022/10/14 02:15:09;;;;;;;5.88;2.78;;;;;;;10.52;100.00;96114.66;1035870;28;20269;-72
2022/10/14 02:15:49;;;;;;;5.45;2.80;;;;;;;10.54;100.00;96111.81;1040348;28;20310;-72
2022/10/14 02:16:32;;;;;;;8.65;5.45;;;;;;;10.53;100.00;96113.66;1036634;28;20297;-72
2022/10/14 02:17:08;;;;;;;7.90;3.55;;;;;;;10.53;100.00;96111.03;1032830;28;20649;-71
2022/10/14 02:18:00;;;;;;;7.35;3.45;;;;;;;10.54;100.00;96111.81;1024345;29;20294;-72
2022/10/14 02:18:30;;;;;;;4.68;3.03;;;;;;;10.52;100.00;96109.41;1028934;28;20262;-72
2022/10/14 02:19:19;;;;;;;6.82;2.83;;;;;;;10.52;100.00;96109.41;1032370;28;20262;-72
2022/10/14 02:19:54;;;;;;;4.85;2.78;;;;;;;10.52;100.00;96112.03;1036877;28;20041;-72
2022/10/14 02:20:32;;;;;;;4.15;2.50;;;;;;;10.37;100.00;96090.97;1035586;28;20702;-71
2022/10/14 02:21:16;;;;;;;5.88;3.08;;;;;;;10.52;100.00;96114.66;1040521;28;20268;-71
2022/10/14 02:21:58;;;;;;;7.30;3.10;;;;;;;10.50;100.00;96116.78;1039840;28;20259;-72
2022/10/14 02:22:42;;;;;;;7.40;2.80;;;;;;;10.50;100.00;96106.28;1044707;28;20350;-71
2022/10/14 02:23:14;;;;;;;5.35;3.15;;;;;;;10.36;100.00;96094.63;1040875;28;20248;-72
2022/10/14 02:23:48;;;;;;;4.03;2.80;;;;;;;10.51;100.00;96112.31;1036076;28;20253;-73
2022/10/14 02:24:20;;;;;;;4.85;3.17;;;;;;;10.50;100.00;96116.78;1037247;28;20296;-72
2022/10/14 02:24:51;;;;;;;6.68;3.20;;;;;;;10.36;100.00;96092.00;1033594;28;20258;-72
2022/10/14 02:25:25;;;;;;;5.25;2.95;;;;;;;10.53;100.00;96116.28;1028868;28;20270;-71
2022/10/14 02:25:55;;;;;;;5.22;3.38;;;;;;;10.55;100.00;96108.13;1025013;28;20769;-72
2022/10/14 02:26:26;;;;;;;5.38;3.10;;;;;;;10.53;100.00;96108.41;1023452;28;20298;-71
2022/10/14 02:26:57;;;;;;;9.30;3.45;;;;;;;10.52;100.00;96112.03;1023681;28;20098;-73
2022/10/14 02:27:28;;;;;;;5.43;3.30;;;;;;;10.53;100.00;96111.03;1026458;28;20026;-72
2022/10/14 02:27:59;;;;;;;7.72;3.30;;;;;;;10.53;100.00;96110.19;1032425;28;20356;-72
2022/10/14 02:28:30;;;;;;;7.63;2.97;;;;;;;10.53;100.00;96108.41;1028209;28;20029;-72
2022/10/14 02:29:00;;;;;;;8.27;3.88;;;;;;;10.51;100.00;96112.31;1024956;28;20926;-71
2022/10/14 02:29:31;;;;;;;5.50;3.15;;;;;;;10.53;100.00;96110.19;1028365;28;20127;-72
2022/10/14 02:30:03;;;;;;;6.97;3.60;;;;;;;10.56;100.00;96114.94;1028204;28;20497;-73
2022/10/14 02:30:37;;;;;;;5.95;3.40;;;;;;;10.57;100.00;96112.09;1028652;28;20029;-71
2022/10/14 02:31:09;;;;;;;3.88;2.72;;;;;;;10.57;100.00;96106.06;1024241;29;20258;-70
2022/10/14 02:31:40;;;;;;;9.13;3.35;;;;;;;10.57;100.00;96112.09;1023934;29;20306;-72
2022/10/14 02:32:11;;;;;;;6.07;3.22;;;;;;;10.60;100.00;96113.44;1029019;28;20282;-73
2022/10/14 02:32:42;;;;;;;9.23;3.45;;;;;;;10.58;100.00;96108.41;1033777;28;20025;-70
2022/10/14 02:33:13;;;;;;;6.15;3.75;;;;;;;10.57;100.00;96108.69;1036151;28;20747;-72
2022/10/14 02:33:46;;;;;;;5.75;3.35;;;;;;;10.55;100.00;96116.78;1028090;28;20027;-72
2022/10/14 02:34:18;;;;;;;4.38;2.95;;;;;;;10.56;100.00;96110.53;1023989;29;20035;-72
2022/10/14 02:34:50;;;;;;;7.45;3.83;;;;;;;10.56;100.00;96110.53;1028342;28;20349;-72
2022/10/14 02:35:20;;;;;;;6.97;3.50;;;;;;;10.56;100.00;96107.91;1035307;28;20296;-70
2022/10/14 02:35:51;;;;;;;6.53;3.20;;;;;;;10.55;100.00;96110.75;1034133;28;20664;-72
2022/10/14 02:36:22;;;;;;;4.13;2.75;;;;;;;10.58;100.00;96108.41;1028293;28;20291;-71
2022/10/14 02:36:53;;;;;;;6.85;3.95;;;;;;;10.55;100.00;96106.28;1023805;29;20034;-72
2022/10/14 02:37:24;;;;;;;7.30;3.22;;;;;;;10.57;100.00;96117.34;1032110;28;20847;-72
2022/10/14 02:37:55;;;;;;;6.88;3.30;;;;;;;10.55;100.00;96103.66;1028426;28;20681;-72
2022/10/14 02:38:25;;;;;;;9.07;3.28;;;;;;;10.61;100.00;96107.91;1028351;28;20254;-72
2022/10/14 02:38:57;;;;;;;6.72;3.65;;;;;;;10.63;100.00;96110.28;1028273;28;20030;-72
2022/10/14 02:39:29;;;;;;;4.97;2.78;;;;;;;10.61;100.00;96113.16;1030987;28;20615;-71
2022/10/14 02:40:22;;;;;;;6.20;3.50;;;;;;;10.60;100.00;96106.34;1028301;28;20262;-73
2022/10/14 02:40:53;;;;;;;5.82;3.40;;;;;;;10.60;100.00;96106.34;1031147;28;20262;-71
2022/10/14 02:41:24;;;;;;;6.93;2.78;;;;;;;10.62;100.00;96108.69;1035413;28;20269;-72
2022/10/14 02:41:55;;;;;;;7.75;4.10;;;;;;;10.61;100.00;96118.41;1027010;28;20029;-71
2022/10/14 02:42:26;;;;;;;4.85;2.92;;;;;;;10.61;100.00;96113.16;1028947;28;20265;-70
2022/10/14 02:42:57;;;;;;;4.85;3.15;;;;;;;10.64;100.00;96111.88;1032071;28;20090;-71
2022/10/14 02:43:27;;;;;;;7.88;3.05;;;;;;;10.63;100.00;96107.66;1028508;28;20019;-72
2022/10/14 02:43:57;;;;;;;7.20;3.03;;;;;;;10.61;100.00;96112.38;1031785;28;20027;-72
2022/10/14 02:44:28;;;;;;;4.75;3.20;;;;;;;10.63;100.00;96120.78;1032597;28;20022;-71